createdAt,value
2023-05-19T00:01:37.627Z,102570.66
2023-05-19T00:04:27.100Z,102574.16
2023-05-19T00:07:19.914Z,102570.63
2023-05-19T00:10:08.660Z,102566.22
2023-05-19T00:12:56.813Z,102571.47
2023-05-19T00:15:45.057Z,102577.59
2023-05-19T00:18:33.383Z,102576.69
2023-05-19T00:21:21.458Z,102572.31
2023-05-19T00:24:09.358Z,102573.19
2023-05-19T00:26:57.090Z,102563.56
2023-05-19T00:29:45.166Z,102564.44
2023-05-19T00:32:32.991Z,102569.66
2023-05-19T00:35:21.824Z,102565.28
2023-05-19T00:38:09.574Z,102562.63
2023-05-19T00:40:57.716Z,102563.50
2023-05-19T00:43:45.983Z,102552.09
2023-05-19T00:46:34.191Z,102557.31
2023-05-19T00:49:22.034Z,102546.81
2023-05-19T00:52:10.078Z,102545.06
2023-05-19T00:54:58.017Z,102546.78
2023-05-19T00:57:48.016Z,102538.94
2023-05-19T01:00:37.030Z,102544.16
2023-05-19T01:03:25.412Z,102545.00
2023-05-19T01:06:13.434Z,102543.22
2023-05-19T01:09:01.233Z,102540.63
2023-05-19T01:11:52.634Z,102534.47
2023-05-19T01:14:40.817Z,102543.19
2023-05-19T01:18:16.834Z,102540.53
2023-05-19T01:21:23.702Z,102546.63
2023-05-19T01:24:53.403Z,102544.00
2023-05-19T01:28:18.737Z,102550.06
2023-05-19T01:31:10.103Z,102539.56
2023-05-19T01:34:01.323Z,102542.19
2023-05-19T01:36:51.355Z,102542.16
2023-05-19T01:39:42.413Z,102545.69
2023-05-19T01:42:37.295Z,102551.72
2023-05-19T01:45:29.121Z,102556.97
2023-05-19T01:48:18.483Z,102546.47
2023-05-19T01:51:06.483Z,102548.19
2023-05-19T01:53:54.337Z,102551.66
2023-05-19T01:57:00.386Z,102542.06
2023-05-19T02:00:11.732Z,102544.69
2023-05-19T02:03:13.914Z,102539.38
2023-05-19T02:06:36.885Z,102536.78
2023-05-19T02:10:10.741Z,102531.47
2023-05-19T02:13:06.495Z,102540.19
2023-05-19T02:16:03.897Z,102527.91
2023-05-19T02:18:52.074Z,102527.91
2023-05-19T02:21:39.886Z,102522.66
2023-05-19T02:24:27.683Z,102522.63
2023-05-19T02:27:15.422Z,102524.34
2023-05-19T02:30:09.397Z,102528.69
2023-05-19T02:32:57.897Z,102535.66
2023-05-19T02:35:45.826Z,102525.16
2023-05-19T02:38:36.333Z,102524.31
2023-05-19T02:41:24.126Z,102520.78
2023-05-19T02:44:11.930Z,102517.28
2023-05-19T02:46:59.715Z,102510.28
2023-05-19T02:49:47.562Z,102512.03
2023-05-19T02:52:36.612Z,102513.75
2023-05-19T02:55:24.557Z,102512.03
2023-05-19T02:58:12.859Z,102511.13
2023-05-19T03:01:00.985Z,102510.22
2023-05-19T03:03:49.077Z,102511.06
2023-05-19T03:06:38.670Z,102514.50
2023-05-19T03:09:26.536Z,102512.78
2023-05-19T03:12:14.432Z,102499.63
2023-05-19T03:15:02.298Z,102502.25
2023-05-19T03:17:50.488Z,102509.22
2023-05-19T03:20:40.284Z,102517.94
2023-05-19T03:23:29.508Z,102509.19
2023-05-19T03:26:17.249Z,102509.13
2023-05-19T03:29:05.992Z,102510.88
2023-05-19T03:31:56.594Z,102507.38
2023-05-19T03:34:44.453Z,102516.09
2023-05-19T03:37:35.148Z,102508.22
2023-05-19T03:40:23.415Z,102513.47
2023-05-19T03:43:14.455Z,102514.31
2023-05-19T03:46:07.713Z,102516.09
2023-05-19T03:49:20.365Z,102521.31
2023-05-19T03:52:26.812Z,102521.31
2023-05-19T03:55:21.341Z,102527.44
2023-05-19T03:58:10.670Z,102527.44
2023-05-19T04:00:58.427Z,102526.56
2023-05-19T04:03:46.654Z,102537.03
2023-05-19T04:06:36.230Z,102528.31
2023-05-19T04:09:24.170Z,102526.56
2023-05-19T04:12:12.084Z,102537.03
2023-05-19T04:15:00.521Z,102541.41
2023-05-19T04:17:48.466Z,102539.69
2023-05-19T04:20:36.374Z,102538.81
2023-05-19T04:23:24.532Z,102536.22
2023-05-19T04:26:14.805Z,102534.47
2023-05-19T04:29:04.757Z,102532.72
2023-05-19T04:31:53.654Z,102533.59
2023-05-19T04:34:45.338Z,102536.25
2023-05-19T04:37:39.106Z,102534.53
2023-05-19T04:40:31.218Z,102530.16
2023-05-19T04:43:19.606Z,102527.63
2023-05-19T04:46:13.245Z,102530.53
2023-05-19T04:49:03.080Z,102529.06
2023-05-19T04:51:54.855Z,102530.97
2023-05-19T04:54:46.651Z,102534.50
2023-05-19T04:57:34.779Z,102538.84
2023-05-19T05:00:23.031Z,102540.50
2023-05-19T05:03:19.218Z,102542.16
2023-05-19T05:06:07.287Z,102533.38
2023-05-19T05:08:55.087Z,102539.50
2023-05-19T05:11:44.199Z,102539.50
2023-05-19T05:14:32.283Z,102534.31
2023-05-19T05:17:20.569Z,102529.09
2023-05-19T05:20:09.947Z,102539.63
2023-05-19T05:22:58.199Z,102535.28
2023-05-19T05:25:47.520Z,102530.91
2023-05-19T05:28:36.787Z,102537.94
2023-05-19T05:31:24.713Z,102537.97
2023-05-19T05:34:13.081Z,102541.53
2023-05-19T05:37:01.983Z,102545.06
2023-05-19T05:39:49.862Z,102545.13
2023-05-19T05:42:37.651Z,102539.03
2023-05-19T05:45:26.811Z,102542.59
2023-05-19T05:48:16.357Z,102546.16
2023-05-19T05:51:05.917Z,102539.22
2023-05-19T05:53:55.695Z,102536.66
2023-05-19T05:56:51.699Z,102534.94
2023-05-19T05:59:40.744Z,102537.63
2023-05-19T06:02:29.958Z,102534.16
2023-05-19T06:05:20.291Z,102532.41
2023-05-19T06:08:09.239Z,102535.94
2023-05-19T06:10:58.916Z,102537.75
2023-05-19T06:13:47.869Z,102528.09
2023-05-19T06:16:48.224Z,102535.97
2023-05-19T06:19:37.216Z,102531.53
2023-05-19T06:22:25.051Z,102535.00
2023-05-19T06:25:14.343Z,102543.78
2023-05-19T06:28:03.655Z,102542.03
2023-05-19T06:30:51.585Z,102541.19
2023-05-19T06:33:58.166Z,102549.09
2023-05-19T06:36:46.180Z,102547.31
2023-05-19T06:39:34.471Z,102543.78
2023-05-19T06:42:23.064Z,102541.09
2023-05-19T06:45:25.821Z,102536.59
2023-05-19T06:48:13.600Z,102541.72
2023-05-19T06:51:02.153Z,102538.88
2023-05-19T06:53:52.039Z,102539.44
2023-05-19T06:56:39.893Z,102547.97
2023-05-19T06:59:28.280Z,102544.22
2023-05-19T07:02:16.716Z,102540.56
2023-05-19T07:05:05.340Z,102535.13
2023-05-19T07:07:53.254Z,102531.31
2023-05-19T07:10:44.995Z,102534.63
2023-05-19T07:13:35.789Z,102536.31
2023-05-19T07:16:23.719Z,102537.84
2023-05-19T07:19:12.008Z,102533.13
2023-05-19T07:21:59.941Z,102530.19
2023-05-19T07:24:47.897Z,102532.50
2023-05-19T07:27:36.658Z,102532.31
2023-05-19T07:30:24.665Z,102533.78
2023-05-19T07:33:12.573Z,102535.16
2023-05-19T07:36:00.634Z,102537.53
2023-05-19T07:38:48.558Z,102537.16
2023-05-19T07:41:36.597Z,102530.63
2023-05-19T07:44:24.420Z,102532.09
2023-05-19T07:47:12.219Z,102530.09
2023-05-19T07:49:59.977Z,102533.41
2023-05-19T07:52:47.719Z,102526.06
2023-05-19T07:55:35.458Z,102526.88
2023-05-19T07:58:23.281Z,102529.72
2023-05-19T08:01:11.089Z,102529.47
2023-05-19T08:03:58.938Z,102526.50
2023-05-19T08:06:46.830Z,102525.91
2023-05-19T08:09:34.634Z,102526.25
2023-05-19T08:12:22.401Z,102518.63
2023-05-19T08:15:11.810Z,102510.34
2023-05-19T08:17:59.608Z,102513.81
2023-05-19T08:20:47.521Z,102511.78
2023-05-19T08:23:37.200Z,102509.75
2023-05-19T08:26:25.062Z,102503.41
2023-05-19T08:29:12.884Z,102498.56
2023-05-19T08:32:01.727Z,102490.97
2023-05-19T08:34:49.877Z,102489.53
2023-05-19T08:37:38.622Z,102488.09
2023-05-19T08:40:31.497Z,102478.09
2023-05-19T08:43:19.623Z,102477.88
2023-05-19T08:46:08.356Z,102470.38
2023-05-19T08:49:05.082Z,102468.25
2023-05-19T08:52:15.758Z,102466.41
2023-05-19T08:55:09.573Z,102467.31
2023-05-19T08:57:57.562Z,102464.50
2023-05-19T09:00:46.555Z,102465.94
2023-05-19T09:03:39.287Z,102461.94
2023-05-19T09:06:27.714Z,102457.88
2023-05-19T09:09:16.031Z,102465.97
2023-05-19T09:12:04.418Z,102462.81
2023-05-19T09:14:52.973Z,102452.44
2023-05-19T09:17:41.015Z,102467.09
2023-05-19T09:20:30.821Z,102458.84
2023-05-19T09:23:18.590Z,102442.09
2023-05-19T09:26:07.392Z,102437.38
2023-05-19T09:28:58.394Z,102446.09
2023-05-19T09:32:01.617Z,102448.44
2023-05-19T09:34:51.075Z,102444.25
2023-05-19T09:37:43.115Z,102441.44
2023-05-19T09:40:32.746Z,102433.19
2023-05-19T09:43:21.643Z,102434.88
2023-05-19T09:46:14.569Z,102432.13
2023-05-19T09:49:09.872Z,102427.75
2023-05-19T09:52:00.194Z,102435.59
2023-05-19T09:54:49.119Z,102431.09
2023-05-19T09:57:38.256Z,102427.38
2023-05-19T10:00:27.399Z,102434.19
2023-05-19T10:03:17.822Z,102436.19
2023-05-19T10:06:07.433Z,102431.53
2023-05-19T10:08:57.146Z,102439.69
2023-05-19T10:11:45.656Z,102433.66
2023-05-19T10:14:33.499Z,102436.47
2023-05-19T10:17:22.493Z,102434.75
2023-05-19T10:20:16.346Z,102431.03
2023-05-19T10:23:04.341Z,102430.84
2023-05-19T10:25:58.460Z,102424.84
2023-05-19T10:28:46.456Z,102423.59
2023-05-19T10:31:36.214Z,102422.38
2023-05-19T10:34:52.056Z,102421.38
2023-05-19T10:37:51.737Z,102414.03
2023-05-19T10:41:02.701Z,102410.19
2023-05-19T10:44:10.132Z,102411.66
2023-05-19T10:46:58.228Z,102396.97
2023-05-19T10:49:46.720Z,102386.31
2023-05-19T10:52:38.867Z,102394.59
2023-05-19T10:55:56.727Z,102391.16
2023-05-19T10:58:52.322Z,102397.50
2023-05-19T11:01:41.679Z,102396.38
2023-05-19T11:04:51.867Z,102385.06
2023-05-19T11:07:44.864Z,102392.47
2023-05-19T11:10:32.897Z,102394.28
2023-05-19T11:13:23.680Z,102393.91
2023-05-19T11:16:11.704Z,102395.03
2023-05-19T11:19:00.587Z,102399.63
2023-05-19T11:21:55.220Z,102397.25
2023-05-19T11:24:50.600Z,102398.13
2023-05-19T11:27:40.177Z,102377.53
2023-05-19T11:30:29.778Z,102391.91
2023-05-19T11:33:19.454Z,102390.97
2023-05-19T11:36:11.059Z,102386.03
2023-05-19T11:39:01.294Z,102377.81
2023-05-19T11:41:51.595Z,102368.78
2023-05-19T11:44:41.229Z,102368.03
2023-05-19T11:47:38.789Z,102368.84
2023-05-19T11:50:38.108Z,102373.19
2023-05-19T11:53:26.123Z,102369.00
2023-05-19T11:56:15.178Z,102370.97
2023-05-19T11:59:04.137Z,102354.06
2023-05-19T12:01:51.995Z,102359.53
2023-05-19T12:04:39.918Z,102359.13
2023-05-19T12:07:28.004Z,102360.28
2023-05-19T12:10:16.227Z,102358.03
2023-05-19T12:13:08.076Z,102360.56
2023-05-19T12:16:01.295Z,102349.59
2023-05-19T12:18:49.215Z,102354.38
2023-05-19T12:21:37.568Z,102343.03
2023-05-19T12:24:25.464Z,102348.78
2023-05-19T12:27:22.393Z,102345.94
2023-05-19T12:30:12.765Z,102340.28
2023-05-19T12:33:02.843Z,102347.03
2023-05-19T12:35:51.511Z,102343.47
2023-05-19T12:38:39.810Z,102346.44
2023-05-19T12:41:29.043Z,102334.56
2023-05-19T12:44:17.571Z,102325.31
2023-05-19T12:47:07.175Z,102332.00
2023-05-19T12:50:09.963Z,102335.72
2023-05-19T12:52:59.858Z,102340.38
2023-05-19T12:55:47.818Z,102339.78
2023-05-19T12:58:37.447Z,102328.00
2023-05-19T13:01:25.326Z,102324.56
2023-05-19T13:04:13.407Z,102321.53
2023-05-19T13:07:01.779Z,102314.31
2023-05-19T13:09:49.862Z,102319.97
2023-05-19T13:12:37.780Z,102314.69
2023-05-19T13:15:31.681Z,102321.28
2023-05-19T13:18:19.719Z,102319.50
2023-05-19T13:21:07.510Z,102313.66
2023-05-19T13:23:55.277Z,102313.97
2023-05-19T13:26:43.246Z,102296.06
2023-05-19T13:29:31.098Z,102295.91
2023-05-19T13:32:18.914Z,102292.28
2023-05-19T13:35:07.357Z,102295.22
2023-05-19T13:37:55.225Z,102297.69
2023-05-19T13:40:44.446Z,102287.91
2023-05-19T13:43:32.243Z,102290.38
2023-05-19T13:46:26.545Z,102291.28
2023-05-19T13:49:21.085Z,102291.50
2023-05-19T13:52:08.927Z,102288.41
2023-05-19T13:54:56.989Z,102288.13
2023-05-19T13:57:44.966Z,102295.78
2023-05-19T14:00:33.233Z,102287.84
2023-05-19T14:03:21.359Z,102280.72
2023-05-19T14:06:09.269Z,102279.50
2023-05-19T14:08:57.039Z,102288.66
2023-05-19T14:11:44.854Z,102276.59
2023-05-19T14:14:32.755Z,102272.28
2023-05-19T14:17:20.586Z,102280.50
2023-05-19T14:20:09.734Z,102276.47
2023-05-19T14:22:57.808Z,102267.53
2023-05-19T14:25:45.810Z,102271.75
2023-05-19T14:28:33.670Z,102284.06
2023-05-19T14:31:21.536Z,102273.94
2023-05-19T14:34:09.535Z,102270.53
2023-05-19T14:36:57.836Z,102266.97
2023-05-19T14:39:45.743Z,102268.69
2023-05-19T14:42:33.522Z,102264.34
2023-05-19T14:45:21.505Z,102262.44
2023-05-19T14:48:11.780Z,102260.72
2023-05-19T14:50:59.762Z,102261.78
2023-05-19T14:53:49.070Z,102270.78
2023-05-19T14:56:36.918Z,102273.66
2023-05-19T14:59:25.053Z,102265.44
2023-05-19T15:02:12.879Z,102263.66
2023-05-19T15:05:01.032Z,102250.56
2023-05-19T15:07:48.906Z,102249.16
2023-05-19T15:10:36.745Z,102253.63
2023-05-19T15:13:26.245Z,102242.41
2023-05-19T15:16:16.918Z,102253.94
2023-05-19T15:19:05.792Z,102237.63
2023-05-19T15:21:53.827Z,102239.50
2023-05-19T15:24:41.596Z,102249.50
2023-05-19T15:27:29.512Z,102242.44
2023-05-19T15:30:17.400Z,102245.88
2023-05-19T15:33:05.345Z,102234.06
2023-05-19T15:35:53.390Z,102237.22
2023-05-19T15:38:41.202Z,102238.69
2023-05-19T15:41:29.033Z,102239.06
2023-05-19T15:44:17.167Z,102235.34
2023-05-19T15:47:05.247Z,102237.31
2023-05-19T15:49:53.014Z,102233.59
2023-05-19T15:52:40.883Z,102239.72
2023-05-19T15:55:28.734Z,102226.28
2023-05-19T15:58:16.665Z,102223.53
2023-05-19T16:01:05.102Z,102222.16
2023-05-19T16:03:53.076Z,102217.13
2023-05-19T16:06:40.946Z,102223.63
2023-05-19T16:09:28.776Z,102212.63
2023-05-19T16:12:16.579Z,102219.88
2023-05-19T16:15:04.951Z,102215.00
2023-05-19T16:17:54.912Z,102215.88
2023-05-19T16:20:44.034Z,102213.81
2023-05-19T16:23:31.958Z,102207.16
2023-05-19T16:26:19.765Z,102210.75
2023-05-19T16:29:07.488Z,102209.91
2023-05-19T16:31:55.382Z,102210.38
2023-05-19T16:34:43.189Z,102205.53
2023-05-19T16:37:31.138Z,102202.88
2023-05-19T16:40:19.830Z,102206.94
2023-05-19T16:43:07.579Z,102200.31
2023-05-19T16:45:55.425Z,102198.13
2023-05-19T16:48:43.261Z,102198.50
2023-05-19T16:51:31.054Z,102194.34
2023-05-19T16:54:18.837Z,102202.03
2023-05-19T16:57:06.613Z,102192.91
2023-05-19T16:59:54.468Z,102195.22
2023-05-19T17:02:42.410Z,102198.59
2023-05-19T17:05:30.484Z,102191.59
2023-05-19T17:08:18.409Z,102202.72
2023-05-19T17:11:06.614Z,102204.25
2023-05-19T17:13:54.540Z,102198.75
2023-05-19T17:16:42.396Z,102208.16
2023-05-19T17:19:30.217Z,102205.47
2023-05-19T17:22:18.006Z,102193.75
2023-05-19T17:25:07.047Z,102198.09
2023-05-19T17:27:55.784Z,102192.63
2023-05-19T17:30:43.547Z,102195.31
2023-05-19T17:33:31.337Z,102197.19
2023-05-19T17:36:19.463Z,102197.53
2023-05-19T17:39:07.680Z,102194.38
2023-05-19T17:41:55.495Z,102191.31
2023-05-19T17:44:43.289Z,102202.03
2023-05-19T17:47:31.136Z,102186.97
2023-05-19T17:50:18.998Z,102196.19
2023-05-19T17:53:07.143Z,102195.47
2023-05-19T17:56:03.379Z,102198.16
2023-05-19T17:58:51.901Z,102199.69
2023-05-19T18:01:40.870Z,102200.94
2023-05-19T18:04:29.695Z,102203.31
2023-05-19T18:07:18.584Z,102198.34
2023-05-19T18:10:08.225Z,102203.97
2023-05-19T18:12:55.997Z,102206.09
2023-05-19T18:15:46.349Z,102206.50
2023-05-19T18:18:37.318Z,102198.03
2023-05-19T18:21:25.325Z,102195.03
2023-05-19T18:24:13.423Z,102202.25
2023-05-19T18:27:01.711Z,102201.44
2023-05-19T18:29:49.734Z,102204.97
2023-05-19T18:32:37.744Z,102216.69
2023-05-19T18:35:25.669Z,102218.66
2023-05-19T18:38:13.498Z,102219.84
2023-05-19T18:41:01.603Z,102215.59
2023-05-19T18:43:49.575Z,102219.50
2023-05-19T18:46:37.532Z,102224.72
2023-05-19T18:49:25.560Z,102228.03
2023-05-19T18:52:13.350Z,102226.16
2023-05-19T18:55:01.479Z,102232.19
2023-05-19T18:57:49.284Z,102229.44
2023-05-19T19:00:37.307Z,102232.69
2023-05-19T19:03:25.209Z,102228.78
2023-05-19T19:06:13.204Z,102232.84
2023-05-19T19:09:03.602Z,102232.50
2023-05-19T19:11:51.546Z,102238.38
2023-05-19T19:14:39.599Z,102245.94
2023-05-19T19:17:27.456Z,102243.69
2023-05-19T19:20:15.497Z,102239.66
2023-05-19T19:23:06.961Z,102251.66
2023-05-19T19:25:57.357Z,102252.19
2023-05-19T19:28:46.425Z,102254.44
2023-05-19T19:31:34.759Z,102256.66
2023-05-19T19:34:22.838Z,102260.66
2023-05-19T19:37:11.166Z,102263.66
2023-05-19T19:39:59.038Z,102264.13
2023-05-19T19:42:46.920Z,102271.50
2023-05-19T19:45:36.419Z,102274.53
2023-05-19T19:48:27.419Z,102276.66
2023-05-19T19:51:15.364Z,102274.41
2023-05-19T19:54:03.190Z,102277.41
2023-05-19T19:56:51.429Z,102275.84
2023-05-19T19:59:39.360Z,102279.66
2023-05-19T20:02:27.376Z,102279.00
2023-05-19T20:05:15.286Z,102283.66
2023-05-19T20:08:05.757Z,102274.16
2023-05-19T20:10:54.461Z,102285.00
2023-05-19T20:13:42.410Z,102281.66
2023-05-19T20:16:30.507Z,102285.41
2023-05-19T20:19:18.655Z,102288.22
2023-05-19T20:22:06.552Z,102290.16
2023-05-19T20:24:54.692Z,102291.19
2023-05-19T20:27:42.608Z,102286.03
2023-05-19T20:30:33.446Z,102295.03
2023-05-19T20:33:24.202Z,102297.88
2023-05-19T20:36:12.138Z,102297.13
2023-05-19T20:38:59.985Z,102294.59
2023-05-19T20:41:47.900Z,102287.63
2023-05-19T20:44:35.736Z,102291.28
2023-05-19T20:47:28.308Z,102294.97
2023-05-19T20:50:21.162Z,102296.84
2023-05-19T20:53:09.050Z,102301.44
2023-05-19T20:55:56.882Z,102292.69
2023-05-19T20:58:44.813Z,102297.25
2023-05-19T21:01:34.337Z,102299.09
2023-05-19T21:04:22.325Z,102298.34
2023-05-19T21:07:10.353Z,102298.41
2023-05-19T21:09:58.308Z,102301.16
2023-05-19T21:12:46.816Z,102304.72
2023-05-19T21:15:34.627Z,102307.41
2023-05-19T21:18:22.594Z,102307.50
2023-05-19T21:21:10.805Z,102308.44
2023-05-19T21:23:59.303Z,102309.41
2023-05-19T21:26:49.235Z,102305.94
2023-05-19T21:29:40.426Z,102305.16
2023-05-19T21:32:31.663Z,102314.09
2023-05-19T21:35:19.494Z,102311.53
2023-05-19T21:38:22.049Z,102303.69
2023-05-19T21:41:13.339Z,102302.94
2023-05-19T21:44:01.233Z,102306.53
2023-05-19T21:46:49.415Z,102310.06
2023-05-19T21:49:39.987Z,102306.66
2023-05-19T21:52:28.239Z,102308.44
2023-05-19T21:55:23.216Z,102305.81
2023-05-19T21:58:11.232Z,102311.13
2023-05-19T22:01:02.163Z,102316.41
2023-05-19T22:03:50.320Z,102312.06
2023-05-19T22:06:40.986Z,102311.25
2023-05-19T22:09:29.222Z,102311.31
2023-05-19T22:12:17.372Z,102305.19
2023-05-19T22:15:06.692Z,102311.44
2023-05-19T22:17:54.695Z,102315.88
2023-05-19T22:20:43.213Z,102316.78
2023-05-19T22:23:36.000Z,102312.34
2023-05-19T22:26:31.343Z,102319.41
2023-05-19T22:29:20.291Z,102315.88
2023-05-19T22:32:11.982Z,102317.63
2023-05-19T22:35:00.044Z,102321.22
2023-05-19T22:37:47.747Z,102315.97
2023-05-19T22:40:36.022Z,102321.22
2023-05-19T22:43:24.111Z,102322.13
2023-05-19T22:46:12.055Z,102316.88
2023-05-19T22:49:00.017Z,102314.25
2023-05-19T22:51:47.962Z,102312.53
2023-05-19T22:54:36.185Z,102316.09
2023-05-19T22:57:24.153Z,102319.72
2023-05-19T23:00:18.493Z,102315.38
2023-05-19T23:03:06.512Z,102312.75
2023-05-19T23:05:57.059Z,102308.41
2023-05-19T23:08:46.880Z,102317.25
2023-05-19T23:11:36.071Z,102310.22
2023-05-19T23:14:26.822Z,102314.63
2023-05-19T23:17:14.758Z,102299.75
2023-05-19T23:20:02.972Z,102301.53
2023-05-19T23:22:50.902Z,102294.53
2023-05-19T23:25:39.059Z,102303.34
2023-05-19T23:28:27.188Z,102304.28
2023-05-19T23:31:15.189Z,102304.34
2023-05-19T23:34:03.473Z,102307.00
2023-05-19T23:36:51.493Z,102302.66
2023-05-19T23:39:39.490Z,102308.00
2023-05-19T23:42:27.345Z,102301.00
2023-05-19T23:45:16.014Z,102308.97
2023-05-19T23:48:04.165Z,102303.69
2023-05-19T23:50:52.145Z,102304.63
2023-05-19T23:53:40.127Z,102309.91
2023-05-19T23:56:28.013Z,102303.00
2023-05-19T23:59:15.824Z,102305.66
